Aviation Digital Data Service (ADDS)

Output produced by METARs form (1712 UTC 03 December 2021)
found at http://aviationweather.gov/metar/data/
 
KHDC 031120Z 0312/0412 00000KT 3SM BR BKN003 
     FM031500 00000KT 6SM BR BKN003 
     FM031600 00000KT P6SM BKN250 
     FM040800 00000KT 1/4SM FG BKN250 
     FM040900 00000KT 1/4SM FG BKN001 AMD NOT SKED